createdAt,value
2018-09-22T00:01:39.389Z,100860.72
2018-09-22T00:04:08.156Z,100854.95
2018-09-22T00:06:36.837Z,100857.63
2018-09-22T00:09:08.115Z,100864.84
2018-09-22T00:11:37.253Z,100866.08
2018-09-22T00:14:06.250Z,100871.25
2018-09-22T00:16:35.304Z,100871.34
2018-09-22T00:19:04.077Z,100876.42
2018-09-22T00:21:32.956Z,100885.23
2018-09-22T00:24:02.079Z,100894.05
2018-09-22T00:26:30.781Z,100886.09
2018-09-22T00:28:59.444Z,100884.76
2018-09-22T00:31:28.199Z,100893.58
2018-09-22T00:33:57.054Z,100894.41
2018-09-22T00:36:26.133Z,100892.06
2018-09-22T00:38:54.930Z,100890.53
2018-09-22T00:41:23.762Z,100904.77
2018-09-22T00:43:53.322Z,100902.81
2018-09-22T00:46:22.074Z,100903.28
2018-09-22T00:48:50.908Z,100904.16
2018-09-22T00:51:19.631Z,100897.09
2018-09-22T00:53:48.398Z,100900.75
2018-09-22T00:56:17.473Z,100914.27
2018-09-22T00:58:46.216Z,100916.19
2018-09-22T01:01:15.072Z,100917.71
2018-09-22T01:03:43.850Z,100915.94
2018-09-22T01:06:12.899Z,100924.48
2018-09-22T01:08:41.753Z,100921.55
2018-09-22T01:11:10.536Z,100924.08
2018-09-22T01:13:39.266Z,100927.77
2018-09-22T01:16:08.414Z,100921.15
2018-09-22T01:18:37.991Z,100930.52
2018-09-22T01:21:06.805Z,100927.27
2018-09-22T01:23:36.246Z,100927.27
2018-09-22T01:26:05.512Z,100927.27
2018-09-22T01:28:34.602Z,100927.27
2018-09-22T01:31:03.348Z,100929.11
2018-09-22T01:33:32.165Z,100932.55
2018-09-22T01:36:00.901Z,100935.05
2018-09-22T01:38:30.070Z,100935.88
2018-09-22T01:40:59.203Z,100939.86
2018-09-22T01:43:28.008Z,100942.03
2018-09-22T01:45:57.153Z,100937.55
2018-09-22T01:48:25.824Z,100946.09
2018-09-22T01:50:54.767Z,100940.30
2018-09-22T01:53:23.610Z,100944.60
2018-09-22T01:55:52.778Z,100952.02
2018-09-22T01:58:21.519Z,100942.69
2018-09-22T02:00:50.469Z,100950.03
2018-09-22T02:03:19.201Z,100956.88
2018-09-22T02:05:47.919Z,100961.58
2018-09-22T02:08:16.746Z,100967.30
2018-09-22T02:10:45.701Z,100972.14
2018-09-22T02:13:14.744Z,100968.55
2018-09-22T02:15:44.086Z,100962.61
2018-09-22T02:18:13.175Z,100968.62
2018-09-22T02:20:42.360Z,100968.47
2018-09-22T02:23:11.123Z,100974.00
2018-09-22T02:25:39.899Z,100971.22
2018-09-22T02:28:08.715Z,100974.72
2018-09-22T02:30:37.453Z,100969.05
2018-09-22T02:33:06.444Z,100975.65
2018-09-22T02:35:35.413Z,100975.11
2018-09-22T02:38:04.773Z,100967.65
2018-09-22T02:40:33.534Z,100971.73
2018-09-22T02:43:03.007Z,100982.22
2018-09-22T02:45:31.828Z,100975.68
2018-09-22T02:48:01.026Z,100982.22
2018-09-22T02:50:30.116Z,100986.54
2018-09-22T02:52:58.916Z,100982.70
2018-09-22T02:55:28.563Z,100984.60
2018-09-22T02:57:57.305Z,100975.23
2018-09-22T03:00:26.060Z,100976.75
2018-09-22T03:02:54.974Z,100970.30
2018-09-22T03:05:23.863Z,100981.69
2018-09-22T03:07:52.958Z,100989.41
2018-09-22T03:10:22.160Z,100986.11
2018-09-22T03:12:50.995Z,100994.41
2018-09-22T03:15:19.836Z,100985.87
2018-09-22T03:17:48.673Z,100989.66
2018-09-22T03:20:17.714Z,100986.66
2018-09-22T03:22:46.866Z,100994.74
2018-09-22T03:25:15.699Z,100986.71
2018-09-22T03:27:44.981Z,100995.06
2018-09-22T03:30:14.227Z,100993.76
2018-09-22T03:32:42.875Z,100995.42
2018-09-22T03:35:12.328Z,100995.16
2018-09-22T03:37:41.071Z,101001.57
2018-09-22T03:40:10.235Z,101003.44
2018-09-22T03:42:39.258Z,101004.83
2018-09-22T03:45:08.376Z,101006.67
2018-09-22T03:47:37.618Z,101007.17
2018-09-22T03:50:06.356Z,101013.30
2018-09-22T03:52:35.154Z,101013.13
2018-09-22T03:55:03.928Z,101015.63
2018-09-22T03:57:32.795Z,101012.12
2018-09-22T04:00:02.009Z,101008.61
2018-09-22T04:02:30.942Z,101014.31
2018-09-22T04:04:59.726Z,101018.33
2018-09-22T04:07:28.758Z,101017.60
2018-09-22T04:09:57.556Z,101021.48
2018-09-22T04:12:26.362Z,101025.88
2018-09-22T04:14:55.131Z,101023.22
2018-09-22T04:17:23.907Z,101026.39
2018-09-22T04:19:53.586Z,101025.89
2018-09-22T04:22:22.977Z,101033.08
2018-09-22T04:24:51.957Z,101032.28
2018-09-22T04:27:20.684Z,101035.95
2018-09-22T04:29:49.732Z,101038.31
2018-09-22T04:32:18.468Z,101038.31
2018-09-22T04:34:47.271Z,101031.34
2018-09-22T04:37:16.500Z,101035.62
2018-09-22T04:39:45.727Z,101036.98
2018-09-22T04:42:14.850Z,101040.82
2018-09-22T04:44:43.710Z,101050.07
2018-09-22T04:47:13.247Z,101050.07
2018-09-22T04:49:42.409Z,101058.25
2018-09-22T04:52:11.510Z,101056.03
2018-09-22T04:54:40.619Z,101058.36
2018-09-22T04:57:09.490Z,101066.00
2018-09-22T04:59:39.026Z,101065.88
2018-09-22T05:02:08.394Z,101073.86
2018-09-22T05:04:37.919Z,101072.00
2018-09-22T05:07:06.925Z,101080.03
2018-09-22T05:09:35.640Z,101091.02
2018-09-22T05:12:05.027Z,101093.36
2018-09-22T05:14:33.798Z,101095.13
2018-09-22T05:17:03.341Z,101102.98
2018-09-22T05:19:32.053Z,101098.69
2018-09-22T05:22:00.873Z,101116.42
2018-09-22T05:24:29.613Z,101123.27
2018-09-22T05:26:58.704Z,101128.41
2018-09-22T05:29:27.752Z,101128.63
2018-09-22T05:31:56.542Z,101120.94
2018-09-22T05:34:25.557Z,101136.03
2018-09-22T05:36:54.760Z,101141.31
2018-09-22T05:39:23.746Z,101135.02
2018-09-22T05:41:52.578Z,101138.20
2018-09-22T05:44:22.117Z,101139.23
2018-09-22T05:46:50.987Z,101145.09
2018-09-22T05:49:20.378Z,101144.92
2018-09-22T05:51:49.451Z,101143.09
2018-09-22T05:54:18.199Z,101152.94
2018-09-22T05:56:47.216Z,101158.95
2018-09-22T05:59:16.365Z,101157.73
2018-09-22T06:01:47.286Z,101168.90
2018-09-22T06:04:16.455Z,101171.91
2018-09-22T06:06:45.971Z,101173.11
2018-09-22T06:09:15.035Z,101179.09
2018-09-22T06:11:45.152Z,101183.77
2018-09-22T06:14:14.704Z,101185.90
2018-09-22T06:16:43.679Z,101184.94
2018-09-22T06:19:13.510Z,101179.42
2018-09-22T06:21:43.700Z,101195.14
2018-09-22T06:24:13.728Z,101197.81
2018-09-22T06:26:42.850Z,101208.96
2018-09-22T06:29:11.657Z,101211.09
2018-09-22T06:31:40.400Z,101212.89
2018-09-22T06:34:09.891Z,101210.71
2018-09-22T06:36:38.983Z,101213.52
2018-09-22T06:39:10.252Z,101222.49
2018-09-22T06:41:39.743Z,101217.53
2018-09-22T06:44:08.928Z,101231.20
2018-09-22T06:46:37.700Z,101226.91
2018-09-22T06:49:06.968Z,101222.17
2018-09-22T06:51:36.408Z,101238.19
2018-09-22T06:54:05.207Z,101233.83
2018-09-22T06:56:34.073Z,101226.69
2018-09-22T06:59:03.459Z,101234.98
2018-09-22T07:01:32.271Z,101241.60
2018-09-22T07:04:01.246Z,101245.67
2018-09-22T07:06:30.176Z,101237.19
2018-09-22T07:08:59.620Z,101254.04
2018-09-22T07:11:28.394Z,101247.52
2018-09-22T07:13:57.384Z,101251.19
2018-09-22T07:16:26.177Z,101257.15
2018-09-22T07:18:54.893Z,101266.84
2018-09-22T07:21:28.738Z,101263.80
2018-09-22T07:23:58.354Z,101267.42
2018-09-22T07:26:27.913Z,101268.69
2018-09-22T07:28:56.821Z,101270.21
2018-09-22T07:31:25.637Z,101271.31
2018-09-22T07:33:54.593Z,101265.92
2018-09-22T07:36:23.308Z,101275.64
2018-09-22T07:38:52.434Z,101275.40
2018-09-22T07:41:21.487Z,101269.62
2018-09-22T07:43:50.243Z,101276.36
2018-09-22T07:46:19.417Z,101280.26
2018-09-22T07:48:48.251Z,101282.79
2018-09-22T07:51:17.322Z,101285.95
2018-09-22T07:53:46.369Z,101299.98
2018-09-22T07:56:17.095Z,101290.92
2018-09-22T07:58:46.027Z,101289.64
2018-09-22T08:01:15.078Z,101303.59
2018-09-22T08:03:44.827Z,101306.75
2018-09-22T08:06:13.765Z,101304.75
2018-09-22T08:08:42.781Z,101310.30
2018-09-22T08:11:11.791Z,101309.17
2018-09-22T08:13:40.560Z,101314.61
2018-09-22T08:16:12.537Z,101311.32
2018-09-22T08:18:41.347Z,101315.06
2018-09-22T08:21:10.598Z,101320.86
2018-09-22T08:23:39.673Z,101321.69
2018-09-22T08:26:08.853Z,101322.89
2018-09-22T08:28:38.229Z,101312.52
2018-09-22T08:31:07.325Z,101310.41
2018-09-22T08:33:36.119Z,101310.27
2018-09-22T08:36:05.016Z,101322.34
2018-09-22T08:38:33.827Z,101314.80
2018-09-22T08:41:02.595Z,101314.36
2018-09-22T08:43:31.668Z,101323.50
2018-09-22T08:46:00.424Z,101311.28
2018-09-22T08:48:29.861Z,101318.91
2018-09-22T08:50:58.813Z,101325.10
2018-09-22T08:53:27.761Z,101320.93
2018-09-22T08:55:56.645Z,101325.98
2018-09-22T08:58:25.381Z,101322.46
2018-09-22T09:00:54.151Z,101327.94
2018-09-22T09:03:23.620Z,101332.84
2018-09-22T09:05:53.030Z,101335.02
2018-09-22T09:08:22.168Z,101333.30
2018-09-22T09:10:51.192Z,101332.25
2018-09-22T09:13:20.015Z,101335.34
2018-09-22T09:15:49.632Z,101337.70
2018-09-22T09:18:18.407Z,101333.56
2018-09-22T09:20:47.420Z,101331.00
2018-09-22T09:23:16.746Z,101331.72
2018-09-22T09:25:46.187Z,101330.88
2018-09-22T09:28:15.188Z,101316.34
2018-09-22T09:30:43.979Z,101320.75
2018-09-22T09:33:13.907Z,101324.03
2018-09-22T09:35:42.677Z,101324.05
2018-09-22T09:38:11.475Z,101329.67
2018-09-22T09:40:41.059Z,101340.80
2018-09-22T09:43:10.571Z,101337.53
2018-09-22T09:45:39.589Z,101326.36
2018-09-22T09:48:14.846Z,101339.24
2018-09-22T09:50:43.752Z,101339.94
2018-09-22T09:53:12.447Z,101344.67
2018-09-22T09:55:41.597Z,101334.51
2018-09-22T09:58:10.428Z,101333.97
2018-09-22T10:00:45.924Z,101341.23
2018-09-22T10:03:16.938Z,101332.90
2018-09-22T10:05:46.311Z,101325.91
2018-09-22T10:08:15.424Z,101318.86
2018-09-22T10:10:44.595Z,101319.23
2018-09-22T10:13:14.098Z,101343.77
2018-09-22T10:15:43.491Z,101329.98
2018-09-22T10:18:12.420Z,101325.95
2018-09-22T10:20:41.357Z,101329.11
2018-09-22T10:23:10.510Z,101324.05
2018-09-22T10:25:39.336Z,101326.19
2018-09-22T10:28:08.205Z,101331.85
2018-09-22T10:30:37.101Z,101329.33
2018-09-22T10:33:09.038Z,101329.13
2018-09-22T10:35:38.315Z,101341.37
2018-09-22T10:38:08.495Z,101332.33
2018-09-22T10:40:38.605Z,101331.82
2018-09-22T10:43:07.536Z,101323.07
2018-09-22T10:45:37.055Z,101320.33
2018-09-22T10:48:05.952Z,101319.81
2018-09-22T10:50:35.055Z,101323.58
2018-09-22T10:53:04.098Z,101328.34
2018-09-22T10:55:33.622Z,101326.59
2018-09-22T10:58:03.161Z,101327.56
2018-09-22T11:00:31.911Z,101325.43
2018-09-22T11:03:00.950Z,101329.27
2018-09-22T11:05:30.103Z,101327.92
2018-09-22T11:07:59.120Z,101328.80
2018-09-22T11:10:28.167Z,101331.27
2018-09-22T11:12:57.774Z,101319.93
2018-09-22T11:15:27.086Z,101311.00
2018-09-22T11:17:56.547Z,101311.87
2018-09-22T11:20:26.843Z,101310.38
2018-09-22T11:22:56.786Z,101302.34
2018-09-22T11:25:26.097Z,101300.64
2018-09-22T11:27:55.309Z,101293.35
2018-09-22T11:30:24.273Z,101294.92
2018-09-22T11:32:53.069Z,101282.91
2018-09-22T11:35:22.193Z,101286.29
2018-09-22T11:37:50.966Z,101282.87
2018-09-22T11:40:19.802Z,101277.52
2018-09-22T11:42:48.842Z,101284.77
2018-09-22T11:45:17.617Z,101287.05
2018-09-22T11:47:46.932Z,101289.88
2018-09-22T11:50:15.930Z,101288.39
2018-09-22T11:52:44.742Z,101296.80
2018-09-22T11:55:14.062Z,101287.13
2018-09-22T11:57:43.257Z,101290.43
2018-09-22T12:00:12.283Z,101282.77
2018-09-22T12:02:41.096Z,101280.25
2018-09-22T12:05:10.133Z,101289.38
2018-09-22T12:07:38.988Z,101286.78
2018-09-22T12:10:07.807Z,101286.88
2018-09-22T12:12:37.095Z,101287.03
2018-09-22T12:15:07.246Z,101279.60
2018-09-22T12:17:36.453Z,101273.59
2018-09-22T12:20:05.718Z,101274.20
2018-09-22T12:22:35.015Z,101264.56
2018-09-22T12:25:03.961Z,101272.00
2018-09-22T12:27:33.324Z,101266.48
2018-09-22T12:30:08.373Z,101266.64
2018-09-22T12:32:37.219Z,101262.03
2018-09-22T12:35:06.374Z,101264.53
2018-09-22T12:37:35.892Z,101262.00
2018-09-22T12:40:04.862Z,101265.25
2018-09-22T12:42:34.034Z,101268.54
2018-09-22T12:45:02.995Z,101258.55
2018-09-22T12:47:32.275Z,101260.09
2018-09-22T12:50:01.642Z,101271.21
2018-09-22T12:52:30.457Z,101261.20
2018-09-22T12:54:59.764Z,101253.57
2018-09-22T12:57:28.915Z,101262.59
2018-09-22T12:59:58.338Z,101257.41
2018-09-22T13:02:27.123Z,101251.52
2018-09-22T13:04:55.958Z,101260.00
2018-09-22T13:07:25.388Z,101248.64
2018-09-22T13:09:54.190Z,101245.62
2018-09-22T13:12:23.078Z,101251.58
2018-09-22T13:14:52.189Z,101246.42
2018-09-22T13:17:21.139Z,101271.24
2018-09-22T13:19:50.331Z,101271.16
2018-09-22T13:22:19.784Z,101273.24
2018-09-22T13:24:48.971Z,101276.78
2018-09-22T13:27:19.282Z,101275.85
2018-09-22T13:29:48.404Z,101270.76
2018-09-22T13:32:17.388Z,101255.28
2018-09-22T13:34:46.345Z,101255.99
2018-09-22T13:37:15.083Z,101255.99
2018-09-22T13:39:44.276Z,101270.19
2018-09-22T13:42:13.328Z,101242.52
2018-09-22T13:44:43.576Z,101240.96
2018-09-22T13:47:13.249Z,101241.02
2018-09-22T13:49:44.093Z,101239.49
2018-09-22T13:52:18.729Z,101243.95
2018-09-22T13:54:49.295Z,101245.41
2018-09-22T13:57:19.264Z,101245.27
2018-09-22T13:59:48.483Z,101238.31
2018-09-22T14:02:17.950Z,101244.36
2018-09-22T14:04:48.662Z,101238.23
2018-09-22T14:07:19.151Z,101237.19
2018-09-22T14:09:49.491Z,101234.28
2018-09-22T14:12:19.388Z,101233.28
2018-09-22T14:14:49.789Z,101245.74
2018-09-22T14:17:19.428Z,101260.58
2018-09-22T14:19:49.955Z,101242.10
2018-09-22T14:22:20.353Z,101236.08
2018-09-22T14:24:49.270Z,101230.91
2018-09-22T14:27:18.297Z,101220.47
2018-09-22T14:29:47.194Z,101232.66
2018-09-22T14:32:16.491Z,101231.83
2018-09-22T14:34:45.400Z,101219.70
2018-09-22T14:37:14.467Z,101221.70
2018-09-22T14:39:43.436Z,101231.66
2018-09-22T14:42:12.584Z,101238.91
2018-09-22T14:44:41.733Z,101232.47
2018-09-22T14:47:11.482Z,101233.11
2018-09-22T14:49:41.451Z,101231.75
2018-09-22T14:52:10.645Z,101242.66
2018-09-22T14:54:39.735Z,101226.19
2018-09-22T14:57:09.517Z,101229.92
2018-09-22T14:59:38.761Z,101229.20
2018-09-22T15:02:08.774Z,101227.33
2018-09-22T15:04:38.308Z,101213.02
2018-09-22T15:07:07.463Z,101207.51
2018-09-22T15:09:37.375Z,101215.72
2018-09-22T15:12:07.999Z,101222.87
2018-09-22T15:14:36.951Z,101221.52
2018-09-22T15:17:07.458Z,101225.23
2018-09-22T15:19:36.732Z,101211.14
2018-09-22T15:22:06.284Z,101220.06
2018-09-22T15:24:36.146Z,101221.52
2018-09-22T15:27:06.203Z,101223.39
2018-09-22T15:29:35.409Z,101219.98
2018-09-22T15:32:06.389Z,101218.20
2018-09-22T15:34:35.580Z,101211.88
2018-09-22T15:37:05.179Z,101208.58
2018-09-22T15:39:34.141Z,101210.96
2018-09-22T15:42:03.307Z,101207.13
2018-09-22T15:44:32.577Z,101222.34
2018-09-22T15:47:01.857Z,101215.02
2018-09-22T15:49:30.939Z,101217.19
2018-09-22T15:52:00.621Z,101228.89
2018-09-22T15:54:30.842Z,101223.30
2018-09-22T15:57:00.042Z,101214.06
2018-09-22T15:59:29.228Z,101198.93
2018-09-22T16:01:59.577Z,101200.59
2018-09-22T16:04:29.401Z,101206.50
2018-09-22T16:06:58.699Z,101201.79
2018-09-22T16:09:29.153Z,101213.80
2018-09-22T16:11:59.927Z,101201.16
2018-09-22T16:14:29.205Z,101203.02
2018-09-22T16:16:58.891Z,101199.41
2018-09-22T16:19:29.086Z,101207.56
2018-09-22T16:21:58.262Z,101202.09
2018-09-22T16:24:27.377Z,101199.48
2018-09-22T16:26:56.459Z,101190.27
2018-09-22T16:29:25.929Z,101194.09
2018-09-22T16:31:55.107Z,101197.93
2018-09-22T16:34:24.592Z,101196.58
2018-09-22T16:36:53.790Z,101186.20
2018-09-22T16:39:23.512Z,101197.48
2018-09-22T16:41:53.667Z,101188.89
2018-09-22T16:44:34.910Z,101191.78
2018-09-22T16:47:04.709Z,101185.98
2018-09-22T16:49:33.615Z,101185.55
2018-09-22T16:52:04.487Z,101186.58
2018-09-22T16:54:34.152Z,101189.81
2018-09-22T16:57:03.888Z,101182.86
2018-09-22T16:59:33.770Z,101182.25
2018-09-22T17:02:03.502Z,101167.52
2018-09-22T17:04:33.634Z,101170.73
2018-09-22T17:07:02.600Z,101169.06
2018-09-22T17:09:31.654Z,101171.25
2018-09-22T17:12:01.338Z,101175.70
2018-09-22T17:14:30.840Z,101189.68
2018-09-22T17:16:59.962Z,101180.45
2018-09-22T17:19:29.306Z,101173.72
2018-09-22T17:21:58.817Z,101179.50
2018-09-22T17:24:27.944Z,101192.87
2018-09-22T17:26:56.917Z,101184.48
2018-09-22T17:29:26.069Z,101174.22
2018-09-22T17:31:55.629Z,101180.95
2018-09-22T17:34:25.375Z,101171.53
2018-09-22T17:36:54.725Z,101165.83
2018-09-22T17:39:41.678Z,101163.02
2018-09-22T17:42:10.550Z,101176.39
2018-09-22T17:44:43.484Z,101177.73
2018-09-22T17:47:16.218Z,101196.44
2018-09-22T17:49:45.215Z,101199.64
2018-09-22T17:52:14.068Z,101196.63
2018-09-22T17:54:43.423Z,101185.55
2018-09-22T17:57:12.850Z,101201.09
2018-09-22T17:59:41.878Z,101200.77
2018-09-22T18:02:13.703Z,101186.68
2018-09-22T18:04:42.603Z,101193.09
2018-09-22T18:07:11.402Z,101196.81
2018-09-22T18:09:40.908Z,101189.56
2018-09-22T18:12:10.283Z,101191.14
2018-09-22T18:14:39.681Z,101191.84
2018-09-22T18:17:08.742Z,101190.56
2018-09-22T18:19:38.924Z,101192.23
2018-09-22T18:22:08.171Z,101186.86
2018-09-22T18:24:37.924Z,101180.33
2018-09-22T18:27:08.166Z,101192.33
2018-09-22T18:29:37.110Z,101193.68
2018-09-22T18:32:06.521Z,101185.16
2018-09-22T18:34:35.467Z,101177.29
2018-09-22T18:37:05.373Z,101181.33
2018-09-22T18:39:35.162Z,101177.52
2018-09-22T18:42:05.658Z,101184.02
2018-09-22T18:44:35.373Z,101190.86
2018-09-22T18:47:04.588Z,101202.67
2018-09-22T18:49:33.314Z,101201.36
2018-09-22T18:52:02.196Z,101198.92
2018-09-22T18:54:33.804Z,101203.78
2018-09-22T18:57:04.159Z,101208.84
2018-09-22T18:59:33.467Z,101213.61
2018-09-22T19:02:03.197Z,101210.22
2018-09-22T19:04:32.552Z,101204.84
2018-09-22T19:07:02.289Z,101204.45
2018-09-22T19:09:32.317Z,101201.02
2018-09-22T19:12:02.728Z,101205.24
2018-09-22T19:14:50.915Z,101215.20
2018-09-22T19:17:30.053Z,101224.40
2018-09-22T19:21:02.065Z,101220.05
2018-09-22T19:23:38.770Z,101228.34
2018-09-22T19:26:20.851Z,101224.18
2018-09-22T19:28:57.432Z,101226.23
2018-09-22T19:31:30.820Z,101216.41
2018-09-22T19:34:03.086Z,101218.27
2018-09-22T19:36:38.754Z,101215.35
2018-09-22T19:39:46.220Z,101221.13
2018-09-22T19:42:22.910Z,101216.35
2018-09-22T19:44:58.885Z,101221.28
2018-09-22T19:47:31.717Z,101217.86
2018-09-22T19:50:02.959Z,101220.02
2018-09-22T19:52:38.123Z,101225.36
2018-09-22T19:55:06.976Z,101230.88
2018-09-22T19:57:35.893Z,101226.48
2018-09-22T20:00:04.774Z,101234.29
2018-09-22T20:02:34.986Z,101228.20
2018-09-22T20:05:04.317Z,101238.45
2018-09-22T20:07:33.803Z,101245.03
2018-09-22T20:10:03.046Z,101245.07
2018-09-22T20:12:32.228Z,101235.21
2018-09-22T20:15:01.127Z,101246.76
2018-09-22T20:17:30.092Z,101251.03
2018-09-22T20:20:00.039Z,101256.00
2018-09-22T20:22:30.047Z,101261.22
2018-09-22T20:24:59.169Z,101254.19
2018-09-22T20:27:28.467Z,101244.76
2018-09-22T20:29:57.638Z,101235.61
2018-09-22T20:32:26.419Z,101234.66
2018-09-22T20:34:55.160Z,101240.71
2018-09-22T20:37:24.476Z,101245.58
2018-09-22T20:39:53.292Z,101235.41
2018-09-22T20:42:22.119Z,101226.28
2018-09-22T20:44:50.975Z,101218.58
2018-09-22T20:47:19.812Z,101223.77
2018-09-22T20:49:49.107Z,101232.46
2018-09-22T20:52:18.085Z,101233.65
2018-09-22T20:54:47.659Z,101223.28
2018-09-22T20:57:16.686Z,101215.59
2018-09-22T20:59:46.406Z,101219.17
2018-09-22T21:02:15.203Z,101225.14
2018-09-22T21:04:44.196Z,101231.25
2018-09-22T21:07:13.181Z,101233.34
2018-09-22T21:09:43.607Z,101243.14
2018-09-22T21:12:13.559Z,101238.88
2018-09-22T21:14:42.935Z,101243.31
2018-09-22T21:17:12.643Z,101246.14
2018-09-22T21:19:41.592Z,101245.81
2018-09-22T21:22:10.631Z,101245.16
2018-09-22T21:24:39.625Z,101245.24
2018-09-22T21:27:09.687Z,101250.41
2018-09-22T21:29:39.309Z,101249.46
2018-09-22T21:32:09.166Z,101242.77
2018-09-22T21:34:39.138Z,101243.15
2018-09-22T21:37:07.978Z,101237.53
2018-09-22T21:39:36.740Z,101242.63
2018-09-22T21:42:05.916Z,101245.36
2018-09-22T21:44:34.681Z,101244.96
2018-09-22T21:47:05.063Z,101242.28
2018-09-22T21:49:33.884Z,101243.64
2018-09-22T21:52:02.759Z,101240.22
2018-09-22T21:54:31.865Z,101240.45
2018-09-22T21:57:00.776Z,101242.30
2018-09-22T21:59:29.656Z,101250.66
2018-09-22T22:01:58.489Z,101248.16
2018-09-22T22:04:27.385Z,101250.22
2018-09-22T22:06:56.204Z,101246.26
2018-09-22T22:09:25.417Z,101243.85
2018-09-22T22:11:54.536Z,101239.34
2018-09-22T22:14:24.141Z,101242.85
2018-09-22T22:16:53.005Z,101234.49
2018-09-22T22:19:22.387Z,101238.67
2018-09-22T22:21:51.175Z,101235.88
2018-09-22T22:24:20.306Z,101231.02
2018-09-22T22:26:52.949Z,101232.70
2018-09-22T22:29:21.912Z,101230.03
2018-09-22T22:31:51.210Z,101229.73
2018-09-22T22:34:20.050Z,101220.70
2018-09-22T22:36:48.829Z,101217.48
2018-09-22T22:39:18.057Z,101205.36
2018-09-22T22:41:47.015Z,101213.72
2018-09-22T22:44:15.926Z,101210.34
2018-09-22T22:46:44.894Z,101213.02
2018-09-22T22:49:13.825Z,101207.66
2018-09-22T22:51:42.968Z,101208.38
2018-09-22T22:54:11.848Z,101208.38
2018-09-22T22:56:40.798Z,101214.67
2018-09-22T22:59:09.840Z,101209.70
2018-09-22T23:01:38.679Z,101211.72
2018-09-22T23:04:07.949Z,101207.38
2018-09-22T23:06:37.100Z,101207.66
2018-09-22T23:09:07.482Z,101204.98
2018-09-22T23:11:36.363Z,101210.50
2018-09-22T23:14:05.314Z,101213.68
2018-09-22T23:16:34.581Z,101202.03
2018-09-22T23:19:03.500Z,101202.87
2018-09-22T23:21:32.349Z,101201.73
2018-09-22T23:24:01.521Z,101208.92
2018-09-22T23:26:30.432Z,101201.27
2018-09-22T23:28:59.196Z,101195.93
2018-09-22T23:31:28.571Z,101193.76
2018-09-22T23:33:57.791Z,101194.13
2018-09-22T23:36:26.653Z,101195.09
2018-09-22T23:38:55.710Z,101196.81
2018-09-22T23:41:25.361Z,101199.81
2018-09-22T23:43:54.353Z,101197.47
2018-09-22T23:46:23.055Z,101192.75
2018-09-22T23:48:51.881Z,101190.79
2018-09-22T23:51:21.044Z,101190.45
2018-09-22T23:53:50.149Z,101197.27
2018-09-22T23:56:18.989Z,101200.14
2018-09-22T23:58:48.865Z,101201.52
